Burton, MI (48519)

2:03 PM EDT on March 27, 2015 (GMT -0400)
Burton - wxbeacon.com | | Change Station
CLOSE
Current Station
Personal Weather Station
Location: Burton, MI
Elevation: 766 ft
Nearby Weather Stations

Elev 766 ft 43.03 °N, 83.59 °W | Updated 2 minutes ago

Overcast
Overcast
22.1 °F
Feels Like 22 °F
N
1.0
Wind Variable Wind from North
Gusts 12.0 mph

Today
High -- | Low -- °F
--% Chance of Precip.
Yesterday
High -- | Low -- °F
Precip. -- in
7:25 AM 7:54 PM
First Quarter, 54% visible
Pressure 30.09 in
Visibility 6.0 miles
Clouds Mostly Cloudy 2600 ft
Mostly Cloudy 3500 ft
Overcast 4500 ft
Windchill 22 °F
Dew Point 9 °F
Humidity 57%
Rainfall 0.00 in
Snow Depth Not available.
UV 2 out of 12
Pollen 3.20 out of 12
Air Quality Not available.
Flu Activity Not available.
METAR KFNT 271753Z 01011KT 6SM -SN BKN026 BKN035 OVC045 M04/M11 A3006 RMK AO2 SLP189 P0000 60001 T10391111 11039 21056 51003

More Conditions Fewer Conditions

Pressure 30.09 in
Visibility 6.0 miles
Clouds Mostly Cloudy 2600 ft
Mostly Cloudy 3500 ft
Overcast 4500 ft
Windchill 22 °F
Dew Point 9 °F
Humidity 57%
Rainfall 0.00 in
Snow Depth Not available.
UV 2 out of 12
Pollen 3.20 out of 12
Air Quality Not available.
Flu Activity Not available.
METAR KFNT 271753Z 01011KT 6SM -SN BKN026 BKN035 OVC045 M04/M11 A3006 RMK AO2 SLP189 P0000 60001 T10391111 11039 21056 51003

More Conditions Fewer Conditions

10-Day Weather Forecast

Almanac

Astronomy

Mar. 27, 2015 Rise Set
Actual Time
Civil Twilight
Nautical Twilight
Astronomical Twilight
Moon
Length of Visible Light
Length of Day
Tomorrow will be .
, % of the Moon is Illuminated

Today's Extremes

State Highs State Lows

Community

WunderPhotos

Upload Photos

1,808,772 photos uploaded!

WunderBlogs® & News

Nearby

Air Quality

  Air Quality AQ Index Pollutant
Not available.

Snow Depth

Station Depth Elevation

Earthquake Activity

City Distance Mag. Time & Date
Minimum magnitude displayed is 2.5.

Coastal Water Temperatures

Place Temperature

Stations

Nearby Weather Stations

Station Location Temp. Windchill Dew Point Humidity Wind Precip. Elev Updated Type